createdAt,value
2023-03-29T00:00:56.227Z,103
2023-03-29T00:02:03.097Z,102
2023-03-29T00:03:09.974Z,99
2023-03-29T00:04:16.668Z,100
2023-03-29T00:05:23.459Z,101
2023-03-29T00:06:30.233Z,103
2023-03-29T00:07:37.124Z,95
2023-03-29T00:08:43.902Z,97
2023-03-29T00:09:50.878Z,98
2023-03-29T00:10:57.753Z,91
2023-03-29T00:12:04.568Z,88
2023-03-29T00:13:11.412Z,86
2023-03-29T00:14:18.242Z,92
2023-03-29T00:15:25.044Z,86
2023-03-29T00:16:31.871Z,79
2023-03-29T00:17:38.688Z,84
2023-03-29T00:18:45.474Z,77
2023-03-29T00:19:52.293Z,75
2023-03-29T00:20:59.145Z,73
2023-03-29T00:22:06.086Z,79
2023-03-29T00:23:12.929Z,73
2023-03-29T00:24:19.776Z,73
2023-03-29T00:25:26.560Z,75
2023-03-29T00:26:33.345Z,74
2023-03-29T00:27:40.314Z,71
2023-03-29T00:28:47.201Z,71
2023-03-29T00:29:54.013Z,62
2023-03-29T00:31:01.055Z,65
2023-03-29T00:32:10.401Z,63
2023-03-29T00:33:17.293Z,62
2023-03-29T00:34:24.137Z,66
2023-03-29T00:35:31.001Z,64
2023-03-29T00:36:37.799Z,64
2023-03-29T00:37:44.621Z,63
2023-03-29T00:38:51.420Z,61
2023-03-29T00:39:58.286Z,64
2023-03-29T00:41:05.134Z,68
2023-03-29T00:42:11.858Z,64
2023-03-29T00:43:18.678Z,63
2023-03-29T00:44:25.509Z,65
2023-03-29T00:45:42.510Z,64
2023-03-29T00:46:49.335Z,65
2023-03-29T00:47:56.195Z,61
2023-03-29T00:49:05.687Z,63
2023-03-29T00:50:12.523Z,60
2023-03-29T00:51:22.128Z,61
2023-03-29T00:52:28.946Z,61
2023-03-29T00:53:35.810Z,58
2023-03-29T00:54:42.590Z,61
2023-03-29T00:55:49.402Z,62
2023-03-29T00:56:58.796Z,58
2023-03-29T00:58:05.587Z,63
2023-03-29T00:59:12.422Z,67
2023-03-29T01:00:19.316Z,66
2023-03-29T01:01:26.212Z,69
2023-03-29T01:02:41.045Z,72
2023-03-29T01:03:47.876Z,73
2023-03-29T01:04:55.016Z,72
2023-03-29T01:06:02.017Z,69
2023-03-29T01:07:09.005Z,70
2023-03-29T01:08:18.812Z,64
2023-03-29T01:09:25.619Z,62
2023-03-29T01:10:32.513Z,64
2023-03-29T01:11:44.328Z,61
2023-03-29T01:12:51.210Z,59
2023-03-29T01:13:58.011Z,66
2023-03-29T01:15:04.921Z,56
2023-03-29T01:16:11.856Z,64
2023-03-29T01:17:18.705Z,59
2023-03-29T01:18:25.537Z,54
2023-03-29T01:19:32.572Z,57
2023-03-29T01:20:42.308Z,50
2023-03-29T01:21:52.198Z,52
2023-03-29T01:22:58.958Z,52
2023-03-29T01:24:15.905Z,51
2023-03-29T01:25:30.677Z,52
2023-03-29T01:26:42.659Z,53
2023-03-29T01:27:59.415Z,51
2023-03-29T01:29:09.241Z,49
2023-03-29T01:30:16.071Z,49
2023-03-29T01:31:30.757Z,47
2023-03-29T01:32:37.734Z,45
2023-03-29T01:33:49.569Z,44
2023-03-29T01:34:56.313Z,46
2023-03-29T01:36:03.142Z,48
2023-03-29T01:37:15.104Z,44
2023-03-29T01:38:26.933Z,47
2023-03-29T01:39:33.696Z,44
2023-03-29T01:40:40.489Z,45
2023-03-29T01:41:47.436Z,46
2023-03-29T01:43:04.411Z,43
2023-03-29T01:44:14.379Z,46
2023-03-29T01:45:24.144Z,45
2023-03-29T01:46:33.841Z,49
2023-03-29T01:47:48.436Z,48
2023-03-29T01:49:00.359Z,54
2023-03-29T01:50:07.180Z,54
2023-03-29T01:51:19.207Z,78
2023-03-29T01:52:28.712Z,80
2023-03-29T01:53:38.783Z,84
2023-03-29T01:54:48.491Z,90
2023-03-29T01:55:58.015Z,97
2023-03-29T01:57:09.930Z,108
2023-03-29T01:58:16.648Z,105
2023-03-29T01:59:26.216Z,105
2023-03-29T02:00:33.083Z,109
2023-03-29T02:01:39.950Z,111
2023-03-29T02:02:49.791Z,100
2023-03-29T02:03:56.569Z,100
2023-03-29T02:05:03.401Z,96
2023-03-29T02:06:10.356Z,90
2023-03-29T02:07:17.203Z,85
2023-03-29T02:08:24.095Z,76
2023-03-29T02:09:30.906Z,67
2023-03-29T02:10:37.723Z,66
2023-03-29T02:11:44.553Z,64
2023-03-29T02:12:51.482Z,63
2023-03-29T02:13:58.301Z,64
2023-03-29T02:15:05.106Z,63
2023-03-29T02:16:14.825Z,64
2023-03-29T02:17:21.617Z,67
2023-03-29T02:18:28.400Z,60
2023-03-29T02:19:35.307Z,59
2023-03-29T02:20:42.111Z,55
2023-03-29T02:21:49.053Z,52
2023-03-29T02:22:55.818Z,51
2023-03-29T02:24:07.669Z,47
2023-03-29T02:25:14.468Z,52
2023-03-29T02:26:21.322Z,50
2023-03-29T02:27:28.117Z,51
2023-03-29T02:28:34.985Z,47
2023-03-29T02:29:41.854Z,45
2023-03-29T02:30:48.681Z,54
2023-03-29T02:32:00.574Z,50
2023-03-29T02:33:12.431Z,47
2023-03-29T02:34:24.513Z,46
2023-03-29T02:35:37.836Z,48
2023-03-29T02:36:44.650Z,48
2023-03-29T02:37:56.589Z,48
2023-03-29T02:39:03.582Z,47
2023-03-29T02:40:10.438Z,46
2023-03-29T02:41:17.194Z,44
2023-03-29T02:42:24.050Z,45
2023-03-29T02:43:30.853Z,45
2023-03-29T02:44:37.749Z,49
2023-03-29T02:45:44.699Z,46
2023-03-29T02:46:51.551Z,45
2023-03-29T02:47:58.302Z,46
2023-03-29T02:49:05.099Z,46
2023-03-29T02:50:14.525Z,47
2023-03-29T02:51:21.510Z,45
2023-03-29T02:52:28.342Z,42
2023-03-29T02:53:35.141Z,46
2023-03-29T02:54:41.917Z,41
2023-03-29T02:55:48.810Z,45
2023-03-29T02:56:55.584Z,43
2023-03-29T02:58:02.426Z,45
2023-03-29T02:59:09.241Z,44
2023-03-29T03:00:16.137Z,48
2023-03-29T03:01:22.952Z,47
2023-03-29T03:02:29.852Z,46
2023-03-29T03:03:36.794Z,46
2023-03-29T03:04:43.485Z,52
2023-03-29T03:05:50.480Z,50
2023-03-29T03:06:57.299Z,55
2023-03-29T03:08:04.094Z,49
2023-03-29T03:09:10.981Z,48
2023-03-29T03:10:17.778Z,49
2023-03-29T03:11:24.590Z,47
2023-03-29T03:12:31.431Z,47
2023-03-29T03:13:38.179Z,47
2023-03-29T03:14:45.014Z,56
2023-03-29T03:15:51.935Z,58
2023-03-29T03:16:58.699Z,62
2023-03-29T03:18:05.545Z,60
2023-03-29T03:19:12.321Z,53
2023-03-29T03:20:19.146Z,50
2023-03-29T03:21:26.008Z,50
2023-03-29T03:22:32.806Z,49
2023-03-29T03:23:39.624Z,50
2023-03-29T03:24:46.426Z,51
2023-03-29T03:25:53.238Z,50
2023-03-29T03:27:00.225Z,52
2023-03-29T03:28:07.070Z,58
2023-03-29T03:29:13.930Z,87
2023-03-29T03:30:20.774Z,118
2023-03-29T03:31:27.632Z,116
2023-03-29T03:32:34.486Z,106
2023-03-29T03:33:41.307Z,104
2023-03-29T03:34:48.352Z,87
2023-03-29T03:35:55.135Z,79
2023-03-29T03:37:07.042Z,77
2023-03-29T03:38:13.847Z,67
2023-03-29T03:39:20.664Z,79
2023-03-29T03:40:28.304Z,86
2023-03-29T03:41:34.385Z,87
2023-03-29T03:42:41.138Z,95
2023-03-29T03:43:47.996Z,82
2023-03-29T03:44:57.814Z,74
2023-03-29T03:46:04.771Z,70
2023-03-29T03:47:11.520Z,55
2023-03-29T03:48:18.382Z,55
2023-03-29T03:49:25.212Z,46
2023-03-29T03:50:32.065Z,52
2023-03-29T03:51:38.875Z,60
2023-03-29T03:52:45.739Z,59
2023-03-29T03:53:52.651Z,64
2023-03-29T03:54:59.451Z,61
2023-03-29T03:56:06.275Z,61
2023-03-29T03:57:13.116Z,57
2023-03-29T03:58:19.953Z,60
2023-03-29T03:59:26.762Z,61
2023-03-29T04:00:33.673Z,59
2023-03-29T04:01:40.535Z,52
2023-03-29T04:02:47.435Z,50
2023-03-29T04:03:54.176Z,49
2023-03-29T04:05:01.027Z,51
2023-03-29T04:06:08.159Z,52
2023-03-29T04:07:14.969Z,51
2023-03-29T04:08:21.788Z,52
2023-03-29T04:09:28.658Z,47
2023-03-29T04:10:35.639Z,43
2023-03-29T04:11:42.588Z,41
2023-03-29T04:12:49.333Z,39
2023-03-29T04:13:56.078Z,38
2023-03-29T04:15:02.901Z,35
2023-03-29T04:16:09.995Z,32
2023-03-29T04:17:16.921Z,38
2023-03-29T04:18:23.860Z,37
2023-03-29T04:19:30.702Z,40
2023-03-29T04:20:37.490Z,38
2023-03-29T04:21:44.283Z,42
2023-03-29T04:22:51.113Z,40
2023-03-29T04:23:58.029Z,46
2023-03-29T04:25:04.900Z,44
2023-03-29T04:26:11.755Z,43
2023-03-29T04:27:18.581Z,43
2023-03-29T04:28:25.518Z,42
2023-03-29T04:29:32.372Z,44
2023-03-29T04:30:39.185Z,48
2023-03-29T04:31:46.150Z,48
2023-03-29T04:32:52.841Z,45
2023-03-29T04:34:00.477Z,42
2023-03-29T04:35:06.540Z,46
2023-03-29T04:36:13.392Z,47
2023-03-29T04:37:20.238Z,44
2023-03-29T04:38:27.049Z,44
2023-03-29T04:39:33.923Z,42
2023-03-29T04:40:40.724Z,39
2023-03-29T04:41:47.510Z,42
2023-03-29T04:42:54.455Z,40
2023-03-29T04:44:01.279Z,40
2023-03-29T04:45:08.224Z,41
2023-03-29T04:46:15.138Z,40
2023-03-29T04:47:21.891Z,40
2023-03-29T04:48:28.715Z,44
2023-03-29T04:49:35.561Z,41
2023-03-29T04:50:42.377Z,41
2023-03-29T04:51:49.236Z,42
2023-03-29T04:52:56.073Z,45
2023-03-29T04:54:02.821Z,44
2023-03-29T04:55:09.582Z,47
2023-03-29T04:56:16.411Z,44
2023-03-29T04:57:23.258Z,45
2023-03-29T04:58:32.136Z,45
2023-03-29T04:59:37.021Z,46
2023-03-29T05:00:44.010Z,48
2023-03-29T05:01:50.841Z,46
2023-03-29T05:02:57.641Z,47
2023-03-29T05:04:04.433Z,48
2023-03-29T05:05:11.339Z,45
2023-03-29T05:06:18.179Z,45
2023-03-29T05:07:25.064Z,47
2023-03-29T05:08:31.872Z,42
2023-03-29T05:09:38.877Z,42
2023-03-29T05:10:45.864Z,45
2023-03-29T05:11:52.675Z,40
2023-03-29T05:12:59.455Z,44
2023-03-29T05:14:06.216Z,41
2023-03-29T05:15:13.140Z,45
2023-03-29T05:16:22.332Z,40
2023-03-29T05:17:29.416Z,42
2023-03-29T05:18:36.206Z,44
2023-03-29T05:19:43.019Z,45
2023-03-29T05:20:49.871Z,41
2023-03-29T05:21:56.747Z,40
2023-03-29T05:23:03.715Z,45
2023-03-29T05:24:10.497Z,41
2023-03-29T05:25:17.326Z,40
2023-03-29T05:26:24.160Z,39
2023-03-29T05:27:31.027Z,43
2023-03-29T05:28:37.875Z,42
2023-03-29T05:29:44.674Z,41
2023-03-29T05:30:51.529Z,39
2023-03-29T05:32:01.367Z,41
2023-03-29T05:33:08.197Z,43
2023-03-29T05:34:14.950Z,40
2023-03-29T05:35:21.848Z,42
2023-03-29T05:36:28.686Z,45
2023-03-29T05:37:35.442Z,41
2023-03-29T05:38:42.321Z,39
2023-03-29T05:39:49.160Z,41
2023-03-29T05:40:56.027Z,41
2023-03-29T05:42:02.900Z,38
2023-03-29T05:43:09.684Z,39
2023-03-29T05:44:16.508Z,37
2023-03-29T05:45:23.411Z,36
2023-03-29T05:46:30.424Z,38
2023-03-29T05:47:37.254Z,41
2023-03-29T05:48:43.981Z,41
2023-03-29T05:49:50.770Z,37
2023-03-29T05:50:57.595Z,39
2023-03-29T05:52:04.602Z,41
2023-03-29T05:53:11.495Z,36
2023-03-29T05:54:18.300Z,40
2023-03-29T05:55:25.148Z,40
2023-03-29T05:56:32.377Z,38
2023-03-29T05:57:39.182Z,38
2023-03-29T05:58:46.021Z,40
2023-03-29T05:59:52.853Z,39
2023-03-29T06:00:59.743Z,39
2023-03-29T06:02:06.587Z,39
2023-03-29T06:03:20.143Z,40
2023-03-29T06:04:20.535Z,35
2023-03-29T06:05:27.282Z,36
2023-03-29T06:06:34.129Z,38
2023-03-29T06:07:40.951Z,33
2023-03-29T06:08:48.134Z,33
2023-03-29T06:09:54.942Z,32
2023-03-29T06:11:03.943Z,32
2023-03-29T06:12:08.630Z,33
2023-03-29T06:13:15.370Z,31
2023-03-29T06:14:22.271Z,30
2023-03-29T06:15:29.138Z,28
2023-03-29T06:16:35.969Z,27
2023-03-29T06:17:42.788Z,28
2023-03-29T06:18:49.570Z,27
2023-03-29T06:19:56.430Z,29
2023-03-29T06:21:03.758Z,30
2023-03-29T06:22:10.549Z,32
2023-03-29T06:23:17.212Z,31
2023-03-29T06:24:23.976Z,30
2023-03-29T06:25:30.939Z,30
2023-03-29T06:26:37.876Z,27
2023-03-29T06:27:44.704Z,28
2023-03-29T06:28:52.324Z,28
2023-03-29T06:29:58.774Z,27
2023-03-29T06:31:05.913Z,26
2023-03-29T06:32:12.608Z,28
2023-03-29T06:33:19.407Z,28
2023-03-29T06:34:26.168Z,29
2023-03-29T06:35:33.043Z,29
2023-03-29T06:36:39.855Z,28
2023-03-29T06:37:46.825Z,30
2023-03-29T06:38:53.699Z,31
2023-03-29T06:40:00.475Z,31
2023-03-29T06:41:07.461Z,29
2023-03-29T06:42:20.924Z,31
2023-03-29T06:43:24.000Z,31
2023-03-29T06:44:30.784Z,29
2023-03-29T06:45:37.766Z,27
2023-03-29T06:46:44.632Z,32
2023-03-29T06:47:51.450Z,25
2023-03-29T06:48:58.267Z,28
2023-03-29T06:50:05.121Z,29
2023-03-29T06:51:12.081Z,28
2023-03-29T06:52:18.873Z,27
2023-03-29T06:53:25.718Z,30
2023-03-29T06:54:32.529Z,28
2023-03-29T06:55:39.317Z,28
2023-03-29T06:56:46.245Z,33
2023-03-29T06:57:52.953Z,29
2023-03-29T06:58:59.793Z,27
2023-03-29T07:00:06.633Z,26
2023-03-29T07:01:18.739Z,25
2023-03-29T07:02:25.510Z,26
2023-03-29T07:03:32.394Z,23
2023-03-29T07:04:39.235Z,27
2023-03-29T07:05:46.144Z,25
2023-03-29T07:06:52.932Z,27
2023-03-29T07:08:02.776Z,27
2023-03-29T07:09:09.577Z,27
2023-03-29T07:10:16.529Z,25
2023-03-29T07:11:28.398Z,22
2023-03-29T07:12:35.360Z,23
2023-03-29T07:13:42.154Z,22
2023-03-29T07:14:48.976Z,23
2023-03-29T07:15:55.836Z,22
2023-03-29T07:17:02.651Z,20
2023-03-29T07:18:09.578Z,21
2023-03-29T07:19:16.369Z,21
2023-03-29T07:20:23.320Z,22
2023-03-29T07:21:30.149Z,22
2023-03-29T07:22:36.930Z,19
2023-03-29T07:23:43.878Z,23
2023-03-29T07:24:50.772Z,21
2023-03-29T07:25:57.770Z,20
2023-03-29T07:27:07.747Z,21
2023-03-29T07:28:14.646Z,21
2023-03-29T07:29:21.439Z,21
2023-03-29T07:30:30.317Z,20
2023-03-29T07:31:35.167Z,21
2023-03-29T07:32:42.106Z,22
2023-03-29T07:33:48.896Z,21
2023-03-29T07:34:55.740Z,20
2023-03-29T07:36:02.759Z,19
2023-03-29T07:37:09.824Z,23
2023-03-29T07:38:16.731Z,20
2023-03-29T07:39:23.533Z,21
2023-03-29T07:40:30.500Z,20
2023-03-29T07:41:37.337Z,19
2023-03-29T07:42:44.148Z,18
2023-03-29T07:43:50.965Z,17
2023-03-29T07:44:57.791Z,20
2023-03-29T07:46:04.626Z,19
2023-03-29T07:47:11.424Z,20
2023-03-29T07:48:18.269Z,17
2023-03-29T07:49:25.102Z,18
2023-03-29T07:50:31.948Z,18
2023-03-29T07:51:38.797Z,18
2023-03-29T07:52:45.520Z,16
2023-03-29T07:53:52.358Z,15
2023-03-29T07:54:59.130Z,17
2023-03-29T07:56:06.026Z,17
2023-03-29T07:57:12.865Z,16
2023-03-29T07:58:19.656Z,18
2023-03-29T07:59:26.503Z,19
2023-03-29T08:00:33.438Z,15
2023-03-29T08:01:40.347Z,18
2023-03-29T08:02:47.223Z,18
2023-03-29T08:03:54.138Z,15
2023-03-29T08:05:00.980Z,19
2023-03-29T08:06:07.976Z,15
2023-03-29T08:07:16.426Z,16
2023-03-29T08:08:24.318Z,15
2023-03-29T08:09:31.225Z,14
2023-03-29T08:10:38.039Z,14
2023-03-29T08:11:44.855Z,13
2023-03-29T08:12:51.795Z,14
2023-03-29T08:13:58.591Z,13
2023-03-29T08:15:05.451Z,12
2023-03-29T08:16:12.227Z,16
2023-03-29T08:17:19.057Z,14
2023-03-29T08:18:25.969Z,16
2023-03-29T08:19:32.801Z,12
2023-03-29T08:20:39.690Z,15
2023-03-29T08:21:46.475Z,14
2023-03-29T08:22:53.292Z,15
2023-03-29T08:24:00.168Z,15
2023-03-29T08:25:07.263Z,16
2023-03-29T08:26:14.026Z,19
2023-03-29T08:27:20.884Z,21
2023-03-29T08:28:27.700Z,17
2023-03-29T08:29:34.954Z,14
2023-03-29T08:30:42.084Z,13
2023-03-29T08:31:49.015Z,12
2023-03-29T08:32:55.821Z,12
2023-03-29T08:34:02.651Z,13
2023-03-29T08:35:09.474Z,12
2023-03-29T08:36:16.411Z,12
2023-03-29T08:37:23.192Z,16
2023-03-29T08:38:32.710Z,20
2023-03-29T08:39:39.411Z,29
2023-03-29T08:40:46.236Z,31
2023-03-29T08:41:53.028Z,34
2023-03-29T08:43:02.907Z,24
2023-03-29T08:44:17.344Z,16
2023-03-29T08:45:29.136Z,18
2023-03-29T08:46:41.056Z,12
2023-03-29T08:47:57.961Z,15
2023-03-29T08:49:09.807Z,12
2023-03-29T08:50:16.554Z,12
2023-03-29T08:51:23.326Z,13
2023-03-29T08:52:32.899Z,13
2023-03-29T08:53:44.700Z,14
2023-03-29T08:54:56.522Z,11
2023-03-29T08:56:03.451Z,12
2023-03-29T08:57:10.419Z,8
2023-03-29T08:58:22.231Z,11
2023-03-29T08:59:29.047Z,10
2023-03-29T09:00:35.995Z,10
2023-03-29T09:01:42.790Z,8
2023-03-29T09:02:49.718Z,9
2023-03-29T09:03:56.509Z,10
2023-03-29T09:05:03.300Z,8
2023-03-29T09:06:20.207Z,12
2023-03-29T09:07:27.034Z,10
2023-03-29T09:08:33.863Z,7
2023-03-29T09:09:48.571Z,7
2023-03-29T09:10:55.383Z,8
2023-03-29T09:12:10.123Z,11
2023-03-29T09:13:17.033Z,6
2023-03-29T09:14:31.721Z,7
2023-03-29T09:15:48.693Z,6
2023-03-29T09:16:55.446Z,7
2023-03-29T09:18:12.361Z,8
2023-03-29T09:19:22.200Z,9
2023-03-29T09:20:39.189Z,7
2023-03-29T09:21:48.699Z,6
2023-03-29T09:22:58.213Z,6
2023-03-29T09:24:10.510Z,7
2023-03-29T09:25:23.328Z,7
2023-03-29T09:26:40.263Z,8
2023-03-29T09:27:54.971Z,7
2023-03-29T09:29:09.073Z,10
2023-03-29T09:30:18.973Z,9
2023-03-29T09:31:30.779Z,10
2023-03-29T09:32:40.266Z,10
2023-03-29T09:33:47.181Z,11
2023-03-29T09:34:59.047Z,9
2023-03-29T09:36:13.922Z,9
2023-03-29T09:37:30.823Z,9
2023-03-29T09:38:37.680Z,13
2023-03-29T09:39:44.486Z,10
2023-03-29T09:40:51.259Z,10
2023-03-29T09:41:58.067Z,10
2023-03-29T09:43:07.724Z,7
2023-03-29T09:44:28.107Z,7
2023-03-29T09:45:27.193Z,8
2023-03-29T09:46:33.954Z,10
2023-03-29T09:47:40.864Z,13
2023-03-29T09:48:55.419Z,16
2023-03-29T09:50:02.254Z,25
2023-03-29T09:51:14.119Z,32
2023-03-29T09:52:20.893Z,20
2023-03-29T09:53:27.786Z,10
2023-03-29T09:54:34.623Z,7
2023-03-29T09:55:41.470Z,10
2023-03-29T09:56:48.283Z,8
2023-03-29T09:57:55.049Z,14
2023-03-29T09:59:01.901Z,14
2023-03-29T10:00:08.733Z,12
2023-03-29T10:01:15.925Z,16
2023-03-29T10:02:22.619Z,16
2023-03-29T10:03:29.410Z,13
2023-03-29T10:04:36.286Z,12
2023-03-29T10:05:43.096Z,10
2023-03-29T10:06:49.865Z,8
2023-03-29T10:07:56.630Z,7
2023-03-29T10:09:03.468Z,7
2023-03-29T10:10:10.239Z,6
2023-03-29T10:11:22.098Z,9
2023-03-29T10:12:31.906Z,8
2023-03-29T10:13:38.741Z,9
2023-03-29T10:14:53.555Z,8
2023-03-29T10:15:58.223Z,8
2023-03-29T10:17:07.781Z,8
2023-03-29T10:18:22.315Z,12
2023-03-29T10:19:29.118Z,8
2023-03-29T10:20:35.943Z,9
2023-03-29T10:21:42.914Z,12
2023-03-29T10:22:50.038Z,7
2023-03-29T10:24:00.213Z,6
2023-03-29T10:25:07.154Z,7
2023-03-29T10:26:16.972Z,9
2023-03-29T10:27:26.800Z,8
2023-03-29T10:28:33.574Z,9
2023-03-29T10:29:40.375Z,11
2023-03-29T10:30:47.233Z,8
2023-03-29T10:31:57.227Z,8
2023-03-29T10:33:04.131Z,6
2023-03-29T10:34:10.890Z,8
2023-03-29T10:35:17.697Z,8
2023-03-29T10:36:24.474Z,7
2023-03-29T10:37:31.290Z,7
2023-03-29T10:38:38.153Z,8
2023-03-29T10:39:44.953Z,7
2023-03-29T10:40:51.802Z,9
2023-03-29T10:41:58.545Z,13
2023-03-29T10:43:05.374Z,9
2023-03-29T10:44:14.824Z,9
2023-03-29T10:45:29.221Z,7
2023-03-29T10:46:36.067Z,8
2023-03-29T10:47:42.853Z,8
2023-03-29T10:48:49.672Z,15
2023-03-29T10:50:04.252Z,11
2023-03-29T10:51:11.042Z,8
2023-03-29T10:52:17.889Z,10
2023-03-29T10:53:24.605Z,11
2023-03-29T10:54:31.380Z,7
2023-03-29T10:55:38.232Z,7
2023-03-29T10:56:45.096Z,7
2023-03-29T10:57:51.834Z,8
2023-03-29T10:58:58.613Z,7
2023-03-29T11:00:10.441Z,6
2023-03-29T11:01:20.127Z,9
2023-03-29T11:02:29.630Z,7
2023-03-29T11:03:36.494Z,9
2023-03-29T11:04:48.357Z,8
2023-03-29T11:06:05.263Z,7
2023-03-29T11:07:14.767Z,7
2023-03-29T11:08:32.074Z,7
2023-03-29T11:09:43.573Z,9
2023-03-29T11:11:00.648Z,10
2023-03-29T11:12:15.431Z,9
2023-03-29T11:13:21.911Z,8
2023-03-29T11:14:33.706Z,10
2023-03-29T11:15:45.562Z,7
2023-03-29T11:17:00.029Z,6
2023-03-29T11:18:12.000Z,6
2023-03-29T11:19:28.860Z,7
2023-03-29T11:20:45.826Z,8
2023-03-29T11:22:02.733Z,7
2023-03-29T11:23:17.379Z,6
2023-03-29T11:24:29.211Z,9
2023-03-29T11:25:41.032Z,9
2023-03-29T11:26:58.055Z,10
2023-03-29T11:28:15.207Z,8
2023-03-29T11:29:21.995Z,10
2023-03-29T11:30:28.766Z,8
2023-03-29T11:31:43.204Z,8
2023-03-29T11:33:00.125Z,8
2023-03-29T11:34:10.116Z,6
2023-03-29T11:35:27.057Z,7
2023-03-29T11:36:38.944Z,6
2023-03-29T11:37:53.406Z,6
2023-03-29T11:39:10.300Z,6
2023-03-29T11:40:22.099Z,7
2023-03-29T11:41:38.977Z,6
2023-03-29T11:42:45.907Z,7
2023-03-29T11:43:53.726Z,8
2023-03-29T11:45:04.650Z,5
2023-03-29T11:46:19.184Z,6
2023-03-29T11:47:31.030Z,6
2023-03-29T11:48:37.785Z,7
2023-03-29T11:49:50.062Z,6
2023-03-29T11:50:59.994Z,7
2023-03-29T11:52:11.900Z,7
2023-03-29T11:53:21.371Z,5
2023-03-29T11:54:28.139Z,7
2023-03-29T11:55:39.971Z,7
2023-03-29T11:56:46.814Z,6
2023-03-29T11:58:03.739Z,6
2023-03-29T11:59:16.555Z,8
2023-03-29T12:00:26.447Z,7
2023-03-29T12:01:33.368Z,6
2023-03-29T12:02:40.273Z,7
2023-03-29T12:03:50.055Z,7
2023-03-29T12:04:56.834Z,6
2023-03-29T12:06:03.696Z,6
2023-03-29T12:07:20.615Z,6
2023-03-29T12:08:32.511Z,8
2023-03-29T12:09:42.173Z,11
2023-03-29T12:10:51.823Z,10
2023-03-29T12:12:03.701Z,8
2023-03-29T12:13:10.549Z,8
2023-03-29T12:14:17.457Z,8
2023-03-29T12:15:26.932Z,10
2023-03-29T12:16:33.792Z,10
2023-03-29T12:17:48.435Z,10
2023-03-29T12:19:03.318Z,8
2023-03-29T12:20:20.308Z,9
2023-03-29T12:21:27.099Z,6
2023-03-29T12:22:33.960Z,7
2023-03-29T12:23:40.725Z,7
2023-03-29T12:24:47.581Z,7
2023-03-29T12:25:54.287Z,9
2023-03-29T12:27:03.766Z,8
2023-03-29T12:28:10.635Z,7
2023-03-29T12:29:22.505Z,7
2023-03-29T12:30:34.508Z,7
2023-03-29T12:31:48.870Z,9
2023-03-29T12:33:05.762Z,6
2023-03-29T12:34:22.656Z,7
2023-03-29T12:35:39.588Z,7
2023-03-29T12:36:56.540Z,8
2023-03-29T12:38:13.508Z,8
2023-03-29T12:39:25.398Z,7
2023-03-29T12:40:32.204Z,7
2023-03-29T12:41:39.118Z,9
2023-03-29T12:42:45.902Z,9
2023-03-29T12:43:55.414Z,9
2023-03-29T12:45:05.342Z,7
2023-03-29T12:46:17.342Z,7
2023-03-29T12:47:24.164Z,9
2023-03-29T12:48:31.163Z,8
2023-03-29T12:49:38.079Z,10
2023-03-29T12:50:44.910Z,11
2023-03-29T12:51:54.821Z,9
2023-03-29T12:53:01.671Z,6
2023-03-29T12:54:16.427Z,8
2023-03-29T12:55:23.206Z,10
2023-03-29T12:56:32.783Z,10
2023-03-29T12:57:42.402Z,12
2023-03-29T12:58:59.350Z,10
2023-03-29T13:00:16.386Z,11
2023-03-29T13:01:26.502Z,8
2023-03-29T13:02:33.177Z,8
2023-03-29T13:03:39.927Z,10
2023-03-29T13:04:52.637Z,8
2023-03-29T13:05:59.506Z,9
2023-03-29T13:07:06.403Z,7
2023-03-29T13:08:23.287Z,10
2023-03-29T13:09:30.135Z,9
2023-03-29T13:10:36.912Z,9
2023-03-29T13:11:43.693Z,9
2023-03-29T13:12:55.549Z,8
2023-03-29T13:14:02.434Z,12
2023-03-29T13:15:11.938Z,9
2023-03-29T13:16:18.817Z,7
2023-03-29T13:17:33.411Z,7
2023-03-29T13:18:50.301Z,8
2023-03-29T13:20:02.142Z,10
2023-03-29T13:21:19.051Z,7
2023-03-29T13:22:28.578Z,8
2023-03-29T13:23:40.489Z,9
2023-03-29T13:24:47.297Z,9
2023-03-29T13:25:59.225Z,8
2023-03-29T13:27:11.090Z,9
2023-03-29T13:28:22.874Z,9
2023-03-29T13:29:37.842Z,8
2023-03-29T13:30:52.633Z,11
2023-03-29T13:32:04.583Z,8
2023-03-29T13:33:19.210Z,9
2023-03-29T13:34:36.162Z,8
2023-03-29T13:35:42.975Z,13
2023-03-29T13:36:59.923Z,12
2023-03-29T13:38:06.804Z,12
2023-03-29T13:39:23.709Z,9
2023-03-29T13:40:30.628Z,10
2023-03-29T13:41:42.562Z,11
2023-03-29T13:42:49.409Z,10
2023-03-29T13:43:59.149Z,9
2023-03-29T13:45:05.975Z,8
2023-03-29T13:46:12.963Z,8
2023-03-29T13:47:19.750Z,8
2023-03-29T13:48:31.701Z,8
2023-03-29T13:49:38.499Z,7
2023-03-29T13:50:45.366Z,10
2023-03-29T13:51:54.943Z,10
2023-03-29T13:53:11.905Z,9
2023-03-29T13:54:18.770Z,10
2023-03-29T13:55:35.560Z,9
2023-03-29T13:56:40.602Z,8
2023-03-29T13:57:55.165Z,10
2023-03-29T13:59:04.826Z,9
2023-03-29T14:00:19.604Z,9
2023-03-29T14:01:26.503Z,8
2023-03-29T14:02:38.389Z,8
2023-03-29T14:03:50.878Z,8
2023-03-29T14:04:57.729Z,9
2023-03-29T14:06:04.851Z,8
2023-03-29T14:07:11.447Z,10
2023-03-29T14:08:18.399Z,8
2023-03-29T14:09:30.299Z,10
2023-03-29T14:10:37.243Z,8
2023-03-29T14:11:43.980Z,10
2023-03-29T14:12:50.782Z,8
2023-03-29T14:13:57.548Z,8
2023-03-29T14:15:04.388Z,9
2023-03-29T14:16:11.498Z,8
2023-03-29T14:17:18.230Z,8
2023-03-29T14:18:25.053Z,9
2023-03-29T14:19:31.946Z,9
2023-03-29T14:20:38.736Z,8
2023-03-29T14:21:45.600Z,8
2023-03-29T14:22:52.514Z,8
2023-03-29T14:23:59.359Z,8
2023-03-29T14:25:06.212Z,8
2023-03-29T14:26:15.797Z,9
2023-03-29T14:27:22.643Z,8
2023-03-29T14:28:29.477Z,10
2023-03-29T14:29:36.299Z,8
2023-03-29T14:30:43.179Z,11
2023-03-29T14:31:50.085Z,12
2023-03-29T14:32:56.991Z,13
2023-03-29T14:34:03.782Z,9
2023-03-29T14:35:10.631Z,9
2023-03-29T14:36:17.561Z,9
2023-03-29T14:37:24.296Z,10
2023-03-29T14:38:31.093Z,12
2023-03-29T14:39:37.978Z,10
2023-03-29T14:40:44.938Z,9
2023-03-29T14:41:51.804Z,9
2023-03-29T14:42:58.575Z,10
2023-03-29T14:44:05.363Z,10
2023-03-29T14:45:12.276Z,9
2023-03-29T14:46:19.225Z,11
2023-03-29T14:47:26.091Z,11
2023-03-29T14:48:34.340Z,10
2023-03-29T14:49:49.257Z,10
2023-03-29T14:50:57.504Z,9
2023-03-29T14:52:04.307Z,10
2023-03-29T14:53:11.107Z,7
2023-03-29T14:54:22.994Z,10
2023-03-29T14:55:32.792Z,10
2023-03-29T14:56:39.571Z,10
2023-03-29T14:57:46.344Z,8
2023-03-29T14:58:53.137Z,17
2023-03-29T15:00:00.011Z,13
2023-03-29T15:01:06.922Z,9
2023-03-29T15:02:18.876Z,9
2023-03-29T15:03:25.741Z,11
2023-03-29T15:04:32.468Z,9
2023-03-29T15:05:39.267Z,8
2023-03-29T15:06:46.019Z,6
2023-03-29T15:07:55.627Z,7
2023-03-29T15:09:06.373Z,8
2023-03-29T15:10:09.368Z,8
2023-03-29T15:11:21.304Z,7
2023-03-29T15:12:28.072Z,8
2023-03-29T15:13:34.978Z,8
2023-03-29T15:14:41.731Z,8
2023-03-29T15:15:48.631Z,8
2023-03-29T15:16:55.456Z,9
2023-03-29T15:18:05.208Z,9
2023-03-29T15:19:11.977Z,9
2023-03-29T15:20:18.759Z,11
2023-03-29T15:21:25.527Z,11
2023-03-29T15:22:32.340Z,10
2023-03-29T15:23:39.247Z,11
2023-03-29T15:24:51.131Z,7
2023-03-29T15:25:57.973Z,9
2023-03-29T15:27:09.881Z,12
2023-03-29T15:28:16.693Z,10
2023-03-29T15:29:26.881Z,10
2023-03-29T15:30:36.142Z,9
2023-03-29T15:31:42.985Z,8
2023-03-29T15:32:49.738Z,10
2023-03-29T15:33:56.746Z,12
2023-03-29T15:35:08.596Z,10
2023-03-29T15:36:23.315Z,9
2023-03-29T15:37:30.159Z,9
2023-03-29T15:38:43.675Z,9
2023-03-29T15:39:43.849Z,10
2023-03-29T15:40:50.704Z,10
2023-03-29T15:41:57.528Z,9
2023-03-29T15:43:04.291Z,9
2023-03-29T15:44:11.094Z,8
2023-03-29T15:45:17.995Z,8
2023-03-29T15:46:24.905Z,8
2023-03-29T15:47:31.644Z,8
2023-03-29T15:48:39.535Z,8
2023-03-29T15:49:46.332Z,7
2023-03-29T15:50:53.145Z,9
2023-03-29T15:51:59.930Z,9
2023-03-29T15:53:14.972Z,9
2023-03-29T15:54:13.663Z,11
2023-03-29T15:55:20.425Z,9
2023-03-29T15:56:27.266Z,10
2023-03-29T15:57:34.239Z,18
2023-03-29T15:58:41.079Z,15
2023-03-29T15:59:47.946Z,13
2023-03-29T16:00:55.056Z,16
2023-03-29T16:02:01.801Z,14
2023-03-29T16:03:08.598Z,11
2023-03-29T16:04:15.447Z,12
2023-03-29T16:05:22.263Z,11
2023-03-29T16:06:29.076Z,10
2023-03-29T16:07:35.849Z,13
2023-03-29T16:08:42.627Z,11
2023-03-29T16:09:49.579Z,13
2023-03-29T16:10:56.371Z,13
2023-03-29T16:12:03.300Z,13
2023-03-29T16:13:10.103Z,11
2023-03-29T16:14:16.933Z,13
2023-03-29T16:15:23.725Z,14
2023-03-29T16:16:30.706Z,14
2023-03-29T16:17:37.400Z,11
2023-03-29T16:18:44.165Z,13
2023-03-29T16:19:50.967Z,12
2023-03-29T16:20:57.738Z,12
2023-03-29T16:22:04.633Z,10
2023-03-29T16:23:11.499Z,11
2023-03-29T16:24:18.298Z,12